Time;durP1;ratioP1;P1;durP2;ratioP2;P2;SDS_P1;SDS_P2;PMS_P1;PMS_P2;Temp;Humidity;BMP_temperature;BMP_pressure;BME280_temperature;BME280_humidity;BME280_pressure;Samples;Min_cycle;Max_cycle;Signal;HPM_P1;HPM_P2
2023/06/11 00:02:33;;;;;;;11.43;8.67;;;;;;;20.75;85.95;99638.56;12253334;19;20017;-85
2023/06/11 00:06:36;;;;;;;9.85;8.07;;;;;;;20.74;87.55;99647.28;12250561;19;20010;-85
2023/06/11 00:10:38;;;;;;;17.00;12.27;;;;;;;20.69;88.16;99656.66;12241033;19;20017;-85
2023/06/11 00:14:39;;;;;;;11.00;8.30;;;;;;;20.64;88.57;99654.81;12240713;19;20342;-85
2023/06/11 00:18:42;;;;;;;10.85;9.23;;;;;;;20.62;89.42;99659.91;12245403;19;20425;-86
2023/06/11 00:22:44;;;;;;;10.65;8.52;;;;;;;20.59;89.96;99652.16;12241376;19;20050;-85
2023/06/11 00:26:46;;;;;;;10.33;8.87;;;;;;;20.57;89.93;99654.44;12238613;19;20492;-85
2023/06/11 00:30:48;;;;;;;9.63;8.60;;;;;;;20.55;89.74;99648.31;12237430;19;20030;-86
2023/06/11 00:34:50;;;;;;;10.23;8.70;;;;;;;20.52;90.50;99646.16;12237126;19;20013;-86
2023/06/11 00:38:53;;;;;;;12.33;8.80;;;;;;;20.45;90.75;99642.97;12236675;19;20519;-86
2023/06/11 00:42:56;;;;;;;;;;;;;;;20.36;90.87;99653.28;12237614;19;20006;-85
2023/06/11 00:46:59;;;;;;;10.65;7.70;;;;;;;20.27;90.45;99644.84;12239500;19;19934;-85
2023/06/11 00:51:02;;;;;;;13.40;8.48;;;;;;;20.16;92.24;99649.03;12239546;19;20025;-86
2023/06/11 00:55:04;;;;;;;12.32;8.40;;;;;;;20.02;93.30;99641.53;12237378;19;20018;-84
2023/06/11 00:59:07;;;;;;;12.65;7.95;;;;;;;19.91;94.81;99642.91;12236914;19;20010;-84
2023/06/11 01:03:11;;;;;;;;;;;;;;;19.76;95.39;99640.47;12237536;19;20406;-85
2023/06/11 01:07:15;;;;;;;10.63;8.25;;;;;;;19.69;95.99;99645.66;12233337;19;20246;-85
2023/06/11 01:11:21;;;;;;;12.25;8.57;;;;;;;19.57;97.02;99644.22;12238690;19;20410;-85
2023/06/11 01:15:26;;;;;;;10.63;8.13;;;;;;;19.46;98.16;99647.56;12234664;19;20401;-85
2023/06/11 01:19:37;;;;;;;9.40;8.40;;;;;;;19.38;99.22;99640.72;12235964;19;20031;-85
2023/06/11 01:23:53;;;;;;;10.93;8.45;;;;;;;19.30;99.49;99650.69;12233649;19;20385;-85
2023/06/11 01:28:08;;;;;;;12.77;8.18;;;;;;;19.24;100.00;99656.66;12236393;19;20022;-85
2023/06/11 01:32:10;;;;;;;10.40;7.88;;;;;;;19.16;100.00;99657.41;12279263;19;20011;-84
2023/06/11 01:36:14;;;;;;;9.13;7.80;;;;;;;19.10;100.00;99667.88;12242373;19;20003;-85
2023/06/11 01:40:16;;;;;;;10.75;8.45;;;;;;;19.02;100.00;99666.59;12240632;19;20147;-85
2023/06/11 01:44:26;;;;;;;11.23;8.48;;;;;;;18.96;100.00;99667.03;12237956;19;20019;-84
2023/06/11 01:48:28;;;;;;;13.48;8.70;;;;;;;18.88;100.00;99665.75;12240213;19;20011;-86
2023/06/11 01:52:30;;;;;;;9.68;8.20;;;;;;;18.83;100.00;99668.69;12240105;19;20010;-86
2023/06/11 01:56:32;;;;;;;10.85;7.72;;;;;;;18.78;100.00;99671.56;12238439;19;20010;-85
2023/06/11 02:00:34;;;;;;;9.32;7.82;;;;;;;18.75;100.00;99680.53;12236620;19;20024;-85
2023/06/11 02:04:36;;;;;;;11.90;9.05;;;;;;;18.71;100.00;99671.09;12235973;19;20010;-85
2023/06/11 02:08:38;;;;;;;9.27;8.00;;;;;;;18.63;100.00;99667.88;12235891;19;20007;-85
2023/06/11 02:12:39;;;;;;;10.50;8.57;;;;;;;18.55;100.00;99668.56;12235873;19;20010;-85
2023/06/11 02:16:41;;;;;;;10.27;7.90;;;;;;;18.48;100.00;99668.16;12233660;19;20463;-85
2023/06/11 02:20:43;;;;;;;9.40;7.67;;;;;;;18.40;100.00;99666.06;12234878;19;20032;-85
2023/06/11 02:24:45;;;;;;;18.43;7.87;;;;;;;18.34;100.00;99672.84;12228958;19;20023;-85
2023/06/11 02:28:47;;;;;;;9.20;7.32;;;;;;;18.28;100.00;99685.22;12234485;19;20037;-85
2023/06/11 02:32:49;;;;;;;11.73;8.45;;;;;;;18.21;100.00;99682.84;12236553;19;20058;-85
2023/06/11 02:36:51;;;;;;;12.15;8.23;;;;;;;18.17;100.00;99684.56;12231163;19;20007;-85
2023/06/11 02:40:53;;;;;;;10.27;8.40;;;;;;;18.08;100.00;99684.41;12235136;19;20308;-85
2023/06/11 02:44:55;;;;;;;10.68;8.18;;;;;;;18.00;100.00;99685.13;12230111;19;20418;-84
2023/06/11 02:48:57;;;;;;;11.60;8.33;;;;;;;17.95;100.00;99690.75;12237486;19;20007;-85
2023/06/11 02:52:58;;;;;;;11.85;8.50;;;;;;;17.92;100.00;99697.78;12245299;19;20082;-85
2023/06/11 02:57:00;;;;;;;12.02;9.73;;;;;;;17.85;100.00;99691.75;12242869;19;20014;-85
2023/06/11 03:01:03;;;;;;;12.63;8.80;;;;;;;17.80;100.00;99689.03;12246004;19;20489;-85
2023/06/11 03:05:05;;;;;;;10.77;8.90;;;;;;;17.75;100.00;99697.44;12240913;19;20010;-85
2023/06/11 03:09:07;;;;;;;12.00;8.90;;;;;;;17.70;100.00;99692.78;12243505;19;20010;-85
2023/06/11 03:13:10;;;;;;;10.82;8.38;;;;;;;17.65;100.00;99698.41;12245704;19;20010;-85
2023/06/11 03:17:12;;;;;;;9.93;8.23;;;;;;;17.62;100.00;99712.94;12239238;19;20019;-85
2023/06/11 03:21:14;;;;;;;11.40;8.63;;;;;;;17.60;100.00;99712.41;12241781;19;20030;-84
2023/06/11 03:25:17;;;;;;;10.40;9.27;;;;;;;17.54;100.00;99720.00;12241030;19;20010;-86
2023/06/11 03:29:18;;;;;;;13.10;7.70;;;;;;;17.49;100.00;99711.72;12246175;19;20006;-85
2023/06/11 03:33:26;;;;;;;11.65;8.32;;;;;;;17.46;100.00;99706.75;12242107;19;20015;-84
2023/06/11 03:37:28;;;;;;;9.65;7.45;;;;;;;17.47;100.00;99718.72;12236598;19;20011;-86
2023/06/11 03:41:32;;;;;;;10.65;7.65;;;;;;;17.46;100.00;99717.03;12243617;19;20479;-85
2023/06/11 04:06:02;;;;;;;;;;;;;;;;;;;;;
2023/06/11 04:10:34;;;;;;;11.77;8.05;;;;;;;17.47;100.00;99721.50;12232818;19;20031;-86
2023/06/11 04:14:53;;;;;;;10.68;6.93;;;;;;;17.48;100.00;99720.34;12235711;19;20014;-85
2023/06/11 04:18:59;;;;;;;11.63;7.63;;;;;;;17.54;100.00;99722.78;12236712;19;20389;-86
2023/06/11 04:23:07;;;;;;;10.65;8.00;;;;;;;17.55;100.00;99729.19;12235840;19;20007;-86
2023/06/11 04:27:21;;;;;;;13.70;8.27;;;;;;;17.59;100.00;99729.44;12234086;19;20014;-85
2023/06/11 04:31:46;;;;;;;10.52;8.52;;;;;;;17.62;100.00;99726.03;12239180;19;20019;-85
2023/06/11 04:36:58;;;;;;;10.43;8.10;;;;;;;17.66;100.00;99729.88;12235727;19;20010;-85
2023/06/11 04:41:39;;;;;;;10.73;7.88;;;;;;;17.64;100.00;99729.34;12237049;19;20013;-84
2023/06/11 04:45:55;;;;;;;9.60;7.20;;;;;;;17.65;100.00;99723.47;12236392;19;20014;-85
2023/06/11 04:50:04;;;;;;;9.93;7.57;;;;;;;17.64;100.00;99732.97;12240375;19;20022;-85
2023/06/11 04:54:07;;;;;;;9.63;7.35;;;;;;;17.65;100.00;99734.63;12240001;19;20014;-84
2023/06/11 04:58:13;;;;;;;10.20;8.80;;;;;;;17.66;100.00;99735.44;12238098;19;20017;-84
2023/06/11 05:02:17;;;;;;;10.15;7.38;;;;;;;17.64;100.00;99730.19;12240351;19;20464;-86
2023/06/11 05:06:21;;;;;;;10.00;7.90;;;;;;;17.70;100.00;99739.31;12239135;19;20015;-85
2023/06/11 05:10:24;;;;;;;10.63;7.60;;;;;;;17.84;100.00;99736.63;12240796;19;20027;-85
2023/06/11 05:14:26;;;;;;;8.80;7.80;;;;;;;17.96;100.00;99731.44;12237927;19;20094;-85
2023/06/11 05:18:29;;;;;;;9.65;7.20;;;;;;;18.09;100.00;99732.66;12237479;19;20035;-84
2023/06/11 05:22:34;;;;;;;9.55;7.18;;;;;;;18.25;100.00;99736.03;12235437;19;20006;-84
2023/06/11 05:26:37;;;;;;;;;;;;;;;18.42;100.00;99736.34;12235013;19;20082;-84
2023/06/11 05:30:46;;;;;;;10.05;8.20;;;;;;;18.62;100.00;99740.72;12234091;19;19915;-85
2023/06/11 05:34:51;;;;;;;9.85;7.78;;;;;;;18.74;100.00;99749.50;12233434;19;20043;-85
2023/06/11 05:38:57;;;;;;;8.95;7.13;;;;;;;18.87;100.00;99759.03;12234022;19;20010;-84
2023/06/11 05:42:59;;;;;;;;;;;;;;;19.01;100.00;99751.53;12235772;19;20010;-84
2023/06/11 05:47:02;;;;;;;9.00;7.45;;;;;;;19.21;100.00;99749.47;12232619;19;19939;-85
2023/06/11 05:51:05;;;;;;;9.30;7.65;;;;;;;19.34;100.00;99752.28;12232933;19;20011;-84
2023/06/11 05:55:07;;;;;;;10.57;7.28;;;;;;;19.47;100.00;99756.22;12232052;19;20031;-83
2023/06/11 05:59:11;;;;;;;11.18;8.13;;;;;;;19.64;100.00;99765.97;12231972;19;20026;-83
2023/06/11 06:03:13;;;;;;;11.00;7.20;;;;;;;19.80;100.00;99767.31;12234526;19;20007;-82
2023/06/11 06:07:16;;;;;;;11.02;7.70;;;;;;;19.95;100.00;99766.97;12239011;19;20066;-83
2023/06/11 06:11:18;;;;;;;11.20;8.20;;;;;;;20.16;98.15;99777.72;12242819;19;20484;-83
2023/06/11 06:15:20;;;;;;;9.67;7.20;;;;;;;20.37;96.75;99769.66;12242455;19;20018;-83
2023/06/11 06:19:22;;;;;;;9.80;7.53;;;;;;;20.60;95.42;99770.53;12238811;19;20575;-83
2023/06/11 06:23:25;;;;;;;8.68;7.22;;;;;;;20.74;94.11;99774.13;12237225;19;20011;-83
2023/06/11 06:27:36;;;;;;;9.07;7.70;;;;;;;20.91;94.02;99776.19;12244161;19;20286;-84
2023/06/11 06:31:42;;;;;;;10.13;7.40;;;;;;;21.08;91.59;99783.88;12248275;19;20092;-83
2023/06/11 06:35:44;;;;;;;11.70;7.65;;;;;;;21.24;89.36;99785.13;12247605;19;20113;-83
2023/06/11 06:39:46;;;;;;;10.27;8.03;;;;;;;21.49;89.01;99794.84;12245242;19;20107;-85
2023/06/11 06:43:48;;;;;;;9.33;7.37;;;;;;;21.73;88.60;99794.44;12238188;19;20013;-84
2023/06/11 06:47:54;;;;;;;9.35;8.23;;;;;;;21.91;83.33;99786.06;12244222;19;20003;-83
2023/06/11 06:51:56;;;;;;;8.05;7.05;;;;;;;22.04;82.75;99791.56;12237558;19;20010;-85
2023/06/11 06:56:00;;;;;;;9.43;7.00;;;;;;;22.17;81.93;99789.78;12221500;19;20015;-85
2023/06/11 07:00:07;;;;;;;8.38;7.43;;;;;;;22.37;80.44;99790.28;12249099;19;20011;-83
2023/06/11 07:04:10;;;;;;;9.43;6.97;;;;;;;22.55;79.03;99789.16;12245835;19;20035;-85
2023/06/11 07:08:13;;;;;;;8.68;7.05;;;;;;;22.80;77.64;99793.09;12251549;19;20051;-85
2023/06/11 07:12:20;;;;;;;8.32;7.38;;;;;;;22.98;76.10;99788.31;12250156;19;20496;-86
2023/06/11 07:16:23;;;;;;;8.63;6.72;;;;;;;23.23;74.98;99797.03;12249430;19;20010;-85
2023/06/11 07:20:30;;;;;;;11.85;7.10;;;;;;;23.43;73.81;99802.75;12251058;19;20066;-81
2023/06/11 07:24:32;;;;;;;;;;;;;;;23.60;72.43;99801.03;12246840;19;20017;-83
2023/06/11 07:28:34;;;;;;;9.50;7.00;;;;;;;23.78;70.57;99804.63;12249251;19;19914;-83
2023/06/11 07:32:36;;;;;;;9.68;6.85;;;;;;;23.98;70.11;99800.22;12250607;19;20002;-83
2023/06/11 07:36:44;;;;;;;8.68;6.80;;;;;;;24.17;68.44;99806.22;12211275;19;20022;-84
2023/06/11 07:40:46;;;;;;;9.18;6.70;;;;;;;24.27;68.88;99796.53;12232272;19;20486;-83
2023/06/11 07:44:48;;;;;;;8.90;7.53;;;;;;;24.43;66.00;99794.00;12211401;19;20003;-82
2023/06/11 07:48:52;;;;;;;9.35;7.18;;;;;;;24.59;64.88;99794.19;12209326;19;20704;-83
2023/06/11 07:52:56;;;;;;;9.15;7.25;;;;;;;24.80;63.89;99794.97;12159627;19;20039;-85
2023/06/11 07:57:02;;;;;;;8.52;7.00;;;;;;;25.01;63.67;99794.94;12230701;19;20011;-83
2023/06/11 08:01:04;;;;;;;8.60;7.35;;;;;;;25.16;61.45;99799.94;12239729;19;20030;-84
2023/06/11 08:05:07;;;;;;;8.77;7.00;;;;;;;25.27;61.82;99794.69;12234032;19;20011;-83
2023/06/11 08:09:09;;;;;;;8.90;6.28;;;;;;;25.48;60.48;99800.28;12221552;19;20006;-84
2023/06/11 08:13:11;;;;;;;9.25;7.00;;;;;;;25.67;58.85;99810.97;12247168;19;20014;-84
2023/06/11 08:17:13;;;;;;;8.93;7.10;;;;;;;25.81;54.46;99808.63;12243654;19;20030;-83
2023/06/11 08:21:14;;;;;;;8.57;6.85;;;;;;;26.01;53.91;99808.91;12244408;19;20523;-83
2023/06/11 08:25:16;;;;;;;7.07;6.25;;;;;;;26.20;52.42;99803.47;12232729;19;20012;-82
2023/06/11 08:29:20;;;;;;;7.55;6.78;;;;;;;26.43;52.00;99800.16;12243659;19;20010;-84
2023/06/11 08:33:23;;;;;;;7.70;6.68;;;;;;;26.66;51.28;99787.16;12245210;19;20006;-83
2023/06/11 08:37:25;;;;;;;7.97;5.95;;;;;;;26.80;51.19;99792.38;12243126;19;20022;-83
2023/06/11 08:41:31;;;;;;;9.40;6.90;;;;;;;26.93;48.97;99793.19;12243526;19;20006;-83
2023/06/11 08:45:33;;;;;;;13.40;7.63;;;;;;;27.04;49.09;99791.47;12236239;19;20007;-83
2023/06/11 08:49:39;;;;;;;11.93;7.63;;;;;;;27.25;49.23;99785.63;12238391;19;20006;-82
2023/06/11 08:53:42;;;;;;;7.40;6.50;;;;;;;27.31;46.93;99784.16;12241379;19;20020;-82
2023/06/11 08:57:44;;;;;;;9.07;6.90;;;;;;;27.43;47.10;99778.44;12239097;19;20015;-84
2023/06/11 09:01:50;;;;;;;10.30;6.90;;;;;;;27.41;46.77;99772.31;12239208;19;20007;-83
2023/06/11 09:05:53;;;;;;;10.23;6.88;;;;;;;27.50;43.84;99775.78;12232920;19;20018;-83
2023/06/11 09:10:04;;;;;;;;;;;;;;;27.57;44.39;99769.47;12233501;19;20018;-82
2023/06/11 09:14:08;;;;;;;9.00;5.80;;;;;;;27.85;42.83;99774.25;12235204;19;19910;-83
2023/06/11 09:18:10;;;;;;;10.07;6.75;;;;;;;28.06;39.65;99769.09;12239108;19;20002;-82
2023/06/11 09:22:12;;;;;;;9.40;5.80;;;;;;;28.16;39.00;99774.16;12156510;19;20010;-83
2023/06/11 09:26:18;;;;;;;;;;;;;;;28.25;36.56;99765.47;12202871;19;20354;-81
2023/06/11 09:30:20;;;;;;;8.63;5.57;;;;;;;28.37;35.93;99762.50;12199028;19;20424;-81
2023/06/11 09:34:24;;;;;;;10.18;6.07;;;;;;;28.46;35.23;99770.81;12184363;19;20369;-83
2023/06/11 09:38:27;;;;;;;9.05;5.18;;;;;;;28.61;33.88;99777.63;12232910;19;20058;-82
2023/06/11 09:42:34;;;;;;;7.13;4.93;;;;;;;28.76;34.14;99765.38;12210006;19;20011;-81
2023/06/11 09:46:35;;;;;;;8.90;5.47;;;;;;;28.88;32.90;99775.75;12233959;19;20010;-83
2023/06/11 09:50:38;;;;;;;6.72;4.88;;;;;;;29.13;32.61;99766.97;12241332;19;20011;-83
2023/06/11 09:54:41;;;;;;;8.45;5.28;;;;;;;29.21;32.92;99765.88;12235838;19;20014;-83
2023/06/11 09:58:47;;;;;;;8.98;5.63;;;;;;;29.47;32.39;99771.63;12238180;19;20013;-83
2023/06/11 10:02:49;;;;;;;7.25;5.43;;;;;;;29.59;33.13;99772.63;12237034;19;20018;-83
2023/06/11 10:06:51;;;;;;;11.00;5.65;;;;;;;29.67;32.41;99769.56;12235271;19;20072;-82
2023/06/11 10:11:00;;;;;;;8.18;5.50;;;;;;;29.77;31.02;99779.47;12231469;19;20358;-81
2023/06/11 10:15:05;;;;;;;6.68;5.13;;;;;;;29.73;31.46;99761.56;12236534;19;20017;-83
2023/06/11 10:19:09;;;;;;;6.95;5.32;;;;;;;29.73;30.34;99767.22;12209420;19;20032;-83
2023/06/11 10:23:11;;;;;;;7.75;5.65;;;;;;;29.74;31.81;99771.69;12234937;19;20014;-84
2023/06/11 10:27:14;;;;;;;8.20;6.18;;;;;;;29.96;31.45;99767.22;12208996;19;20006;-83
2023/06/11 10:31:26;;;;;;;9.18;5.65;;;;;;;30.20;31.31;99772.47;12234214;19;20015;-84
2023/06/11 10:35:34;;;;;;;8.98;5.93;;;;;;;30.29;30.20;99765.69;12208698;19;20123;-81
2023/06/11 10:39:36;;;;;;;7.68;5.70;;;;;;;30.35;31.14;99767.00;12238706;19;20003;-82
2023/06/11 10:43:38;;;;;;;9.32;6.32;;;;;;;30.36;30.54;99769.44;12234009;19;20035;-85
2023/06/11 10:47:40;;;;;;;;;;;;;;;30.28;31.13;99766.88;12245080;19;20007;-84
2023/06/11 10:51:43;;;;;;;12.85;6.15;;;;;;;30.36;31.01;99766.59;12233030;19;20034;-82
2023/06/11 10:55:47;;;;;;;9.70;6.00;;;;;;;30.53;30.82;99764.41;12235516;19;20022;-81
2023/06/11 10:59:50;;;;;;;6.68;5.82;;;;;;;30.63;30.05;99755.97;12234787;19;20014;-82
2023/06/11 11:03:52;;;;;;;7.13;5.68;;;;;;;30.77;30.46;99755.34;12231830;19;20619;-79
2023/06/11 11:07:55;;;;;;;7.82;6.15;;;;;;;30.84;29.95;99755.44;12233782;19;20476;-83
2023/06/11 11:11:58;;;;;;;9.07;5.68;;;;;;;30.90;29.67;99744.53;12239187;19;20111;-82
2023/06/11 11:16:01;;;;;;;9.23;6.25;;;;;;;31.21;29.44;99739.59;12245376;19;20015;-83
2023/06/11 11:20:07;;;;;;;9.45;5.80;;;;;;;31.19;29.29;99742.03;12245790;19;20010;-83
2023/06/11 11:24:12;;;;;;;10.07;6.15;;;;;;;31.46;29.12;99739.88;12244463;19;20014;-82
2023/06/11 11:28:14;;;;;;;9.68;5.95;;;;;;;31.46;29.02;99743.53;12247330;19;19999;-82
2023/06/11 11:32:17;;;;;;;8.38;5.82;;;;;;;31.42;28.20;99747.56;12244099;19;20040;-82
2023/06/11 11:36:22;;;;;;;8.20;6.20;;;;;;;31.51;28.24;99737.47;12236814;19;20063;-82
2023/06/11 11:40:23;;;;;;;9.43;5.78;;;;;;;31.77;27.44;99742.16;12246794;19;20011;-81
2023/06/11 11:44:27;;;;;;;10.43;6.35;;;;;;;31.84;27.09;99732.84;12238834;19;20123;-83
2023/06/11 11:48:32;;;;;;;7.22;5.68;;;;;;;31.99;27.65;99736.66;12239631;19;20070;-83
2023/06/11 11:52:37;;;;;;;7.85;5.65;;;;;;;32.12;27.39;99737.94;12242989;19;20355;-81
2023/06/11 11:56:40;;;;;;;9.98;6.05;;;;;;;32.25;27.34;99721.34;12237151;19;20022;-81
2023/06/11 12:00:58;;;;;;;6.78;5.47;;;;;;;32.37;26.16;99726.69;12242550;19;20042;-82
2023/06/11 12:05:01;;;;;;;6.82;5.57;;;;;;;32.23;26.25;99716.03;12244690;19;20014;-79
2023/06/11 12:09:03;;;;;;;11.43;6.32;;;;;;;32.07;26.29;99717.56;12252197;19;20018;-83
2023/06/11 12:13:06;;;;;;;6.43;5.47;;;;;;;32.12;26.35;99715.13;12248666;19;20476;-82
2023/06/11 12:17:10;;;;;;;7.53;5.30;;;;;;;32.78;26.13;99705.69;12242832;19;20628;-83
2023/06/11 12:21:13;;;;;;;7.88;5.90;;;;;;;33.59;24.83;99698.50;12246333;19;20119;-82
2023/06/11 12:25:15;;;;;;;10.35;6.55;;;;;;;34.26;23.94;99697.56;12247825;19;20006;-83
2023/06/11 12:29:17;;;;;;;8.68;7.05;;;;;;;35.17;22.37;99695.13;12243399;19;20007;-81
2023/06/11 12:33:19;;;;;;;9.23;6.57;;;;;;;35.53;22.00;99685.00;12241656;19;20017;-80
2023/06/11 12:37:24;;;;;;;6.65;6.05;;;;;;;36.27;21.86;99696.19;12247271;19;20476;-83
2023/06/11 12:41:27;;;;;;;7.10;6.22;;;;;;;36.96;20.70;99686.25;12239053;19;20025;-81
2023/06/11 12:45:30;;;;;;;7.85;6.55;;;;;;;37.51;20.66;99675.59;12236503;19;20010;-82
2023/06/11 12:49:32;;;;;;;7.53;6.13;;;;;;;38.09;19.78;99669.59;12239914;19;20045;-82
2023/06/11 12:53:36;;;;;;;8.10;6.63;;;;;;;38.43;19.73;99683.72;12236715;19;19998;-83
2023/06/11 12:57:38;;;;;;;10.43;6.47;;;;;;;38.63;19.56;99663.56;12241930;19;20010;-84
2023/06/11 13:01:40;;;;;;;7.20;6.25;;;;;;;39.22;18.89;99670.44;12241676;19;20006;-86
2023/06/11 13:05:41;;;;;;;6.85;6.20;;;;;;;39.47;18.33;99671.91;12260893;19;20018;-83
2023/06/11 13:09:43;;;;;;;8.63;5.80;;;;;;;39.73;18.14;99653.50;12258896;19;20011;-84
2023/06/11 13:13:47;;;;;;;7.05;5.82;;;;;;;40.09;17.03;99649.63;12243873;19;20003;-86
2023/06/11 13:17:49;;;;;;;7.22;5.45;;;;;;;40.26;17.03;99651.22;12245980;19;20007;-83
2023/06/11 13:21:51;;;;;;;7.05;5.72;;;;;;;40.35;17.35;99646.88;12245385;19;20015;-83
2023/06/11 13:25:53;;;;;;;6.10;5.47;;;;;;;40.82;16.72;99646.28;12238619;19;20006;-84
2023/06/11 13:29:56;;;;;;;7.07;5.28;;;;;;;41.21;15.98;99640.03;12242531;19;20010;-83
2023/06/11 13:33:57;;;;;;;6.13;5.43;;;;;;;41.25;16.24;99636.22;12240742;19;20023;-84
2023/06/11 13:37:59;;;;;;;8.13;5.88;;;;;;;41.43;15.74;99642.19;12239896;19;20018;-81
2023/06/11 13:42:01;;;;;;;6.53;5.90;;;;;;;41.86;15.76;99640.72;12240402;19;20017;-81
2023/06/11 13:46:03;;;;;;;6.05;5.45;;;;;;;42.08;15.73;99626.28;12235687;19;20353;-82
2023/06/11 13:50:05;;;;;;;6.72;5.40;;;;;;;42.64;14.95;99621.69;12238676;19;20028;-81
2023/06/11 13:54:07;;;;;;;8.30;5.30;;;;;;;43.21;14.75;99613.56;12236831;19;20024;-80
2023/06/11 13:58:09;;;;;;;5.50;5.00;;;;;;;43.85;14.43;99627.38;12236743;19;20011;-80
2023/06/11 14:02:11;;;;;;;6.15;5.40;;;;;;;44.40;13.43;99606.22;12236011;19;20748;-82
2023/06/11 14:06:13;;;;;;;6.80;5.13;;;;;;;45.15;13.31;99603.38;12232213;19;20022;-80
2023/06/11 14:10:15;;;;;;;8.23;5.55;;;;;;;44.58;12.89;99603.25;12235843;19;20018;-82
2023/06/11 14:14:16;;;;;;;8.10;5.45;;;;;;;44.80;13.49;99579.78;12231770;19;20003;-81
2023/06/11 14:18:18;;;;;;;7.63;5.18;;;;;;;44.88;13.12;99586.84;12235995;19;20014;-81
2023/06/11 14:22:20;;;;;;;7.82;5.00;;;;;;;44.97;12.86;99578.06;12235941;19;20010;-81
2023/06/11 14:26:22;;;;;;;6.82;4.93;;;;;;;44.81;12.85;99575.59;12238428;19;20026;-82
2023/06/11 14:30:25;;;;;;;6.32;5.38;;;;;;;45.38;12.89;99574.78;12236077;19;20011;-78
2023/06/11 14:34:27;;;;;;;8.88;5.65;;;;;;;45.70;12.56;99571.00;12230762;19;20019;-79
2023/06/11 14:38:29;;;;;;;6.03;5.43;;;;;;;45.38;12.73;99566.06;12238044;19;20002;-81
2023/06/11 14:42:31;;;;;;;5.57;5.07;;;;;;;45.38;12.54;99560.25;12236019;19;20022;-82
2023/06/11 14:46:34;;;;;;;6.60;5.07;;;;;;;46.00;12.24;99553.59;12242985;19;20444;-83
2023/06/11 14:50:42;;;;;;;6.18;5.18;;;;;;;46.29;12.14;99546.19;12248302;19;20447;-83
2023/06/11 14:54:44;;;;;;;5.82;4.90;;;;;;;45.79;12.11;99543.13;12246055;19;20022;-82
2023/06/11 14:58:46;;;;;;;6.35;5.00;;;;;;;44.04;12.60;99558.53;12241848;19;20007;-83
2023/06/11 15:02:48;;;;;;;7.05;5.07;;;;;;;41.26;14.15;99554.00;12245072;19;20014;-82
2023/06/11 15:06:52;;;;;;;6.85;5.30;;;;;;;41.05;14.67;99539.00;12244512;19;20023;-83
2023/06/11 15:10:53;;;;;;;5.80;5.20;;;;;;;41.67;14.62;99533.50;12242203;19;20019;-79
2023/06/11 15:14:56;;;;;;;7.03;5.45;;;;;;;42.07;13.21;99532.84;12238785;19;21016;-83
2023/06/11 15:18:58;;;;;;;7.53;5.15;;;;;;;42.47;13.42;99535.00;12245133;19;20014;-79
2023/06/11 15:22:59;;;;;;;6.00;5.40;;;;;;;40.08;14.78;99536.28;12245398;19;20480;-83
2023/06/11 15:27:01;;;;;;;6.57;5.68;;;;;;;37.71;15.82;99531.06;12241242;19;20014;-79
2023/06/11 15:31:03;;;;;;;7.97;5.32;;;;;;;35.91;16.87;99526.59;12247575;19;20011;-82
2023/06/11 15:35:06;;;;;;;6.40;5.80;;;;;;;34.91;17.62;99516.97;12246697;19;20018;-82
2023/06/11 15:39:08;;;;;;;6.10;5.38;;;;;;;34.00;18.33;99517.94;12243154;19;20018;-80
2023/06/11 15:43:10;;;;;;;7.90;5.63;;;;;;;33.31;18.85;99520.19;12241492;19;20085;-80
2023/06/11 15:47:13;;;;;;;6.78;5.43;;;;;;;32.61;19.14;99522.69;12241113;19;20018;-80
2023/06/11 15:51:16;;;;;;;8.07;5.32;;;;;;;32.30;19.37;99512.00;12237703;19;20018;-81
2023/06/11 15:55:18;;;;;;;10.88;8.43;;;;;;;32.19;19.61;99509.97;12240381;19;20019;-80
2023/06/11 15:59:20;;;;;;;6.43;5.35;;;;;;;31.74;20.40;99514.25;12242172;19;20018;-81
2023/06/11 16:03:22;;;;;;;7.63;4.78;;;;;;;31.45;20.14;99510.47;12245356;19;20026;-83
2023/06/11 16:07:24;;;;;;;7.93;6.10;;;;;;;31.09;20.44;99508.16;12239557;19;20673;-82
2023/06/11 16:11:26;;;;;;;8.52;5.28;;;;;;;31.02;20.82;99504.44;12239947;19;20458;-82
2023/06/11 16:15:28;;;;;;;6.00;4.72;;;;;;;30.81;21.13;99505.09;12235914;19;20015;-80
2023/06/11 16:19:30;;;;;;;6.05;4.38;;;;;;;30.62;21.56;99509.00;12238104;19;20018;-81
2023/06/11 16:23:32;;;;;;;7.53;4.53;;;;;;;30.70;21.34;99513.53;12237701;19;20418;-81
2023/06/11 16:27:34;;;;;;;7.78;5.25;;;;;;;30.59;21.49;99512.63;12237413;19;20006;-81
2023/06/11 16:31:36;;;;;;;6.95;4.47;;;;;;;30.35;21.85;99511.16;12239811;19;20070;-81
2023/06/11 16:35:38;;;;;;;10.30;4.80;;;;;;;30.18;21.83;99513.41;12237010;19;20571;-81
2023/06/11 16:39:40;;;;;;;7.10;4.88;;;;;;;30.01;21.76;99507.50;12234241;19;20018;-80
2023/06/11 16:43:42;;;;;;;8.93;4.25;;;;;;;29.90;21.96;99513.09;12234353;19;20017;-80
2023/06/11 16:47:44;;;;;;;6.82;4.10;;;;;;;29.67;21.45;99507.53;12229942;19;20055;-81
2023/06/11 16:51:46;;;;;;;8.45;4.68;;;;;;;29.51;21.61;99504.88;12234787;19;20007;-80
2023/06/11 16:55:48;;;;;;;7.20;4.43;;;;;;;29.39;22.32;99522.94;12231456;19;20014;-80
2023/06/11 16:59:50;;;;;;;7.80;4.25;;;;;;;29.35;21.92;99515.56;12230828;19;20010;-79
2023/06/11 17:03:52;;;;;;;7.03;4.00;;;;;;;29.21;22.10;99508.50;12233345;19;20010;-81
2023/06/11 17:07:56;;;;;;;;;;;;;;;29.13;22.03;99511.63;12229912;19;20475;-79
2023/06/11 17:12:03;;;;;;;5.70;3.83;;;;;;;29.06;22.30;99501.81;12232336;19;19968;-79
2023/06/11 17:16:06;;;;;;;6.47;3.83;;;;;;;29.01;22.18;99510.59;12226005;19;20352;-80
2023/06/11 17:20:09;;;;;;;5.78;3.60;;;;;;;28.90;22.61;99511.63;12236083;19;20011;-80
2023/06/11 17:24:12;;;;;;;6.50;4.03;;;;;;;28.80;23.01;99510.25;12233632;19;20346;-81
2023/06/11 17:28:14;;;;;;;5.95;3.97;;;;;;;28.78;23.52;99515.50;12235048;19;20698;-80
2023/06/11 17:32:16;;;;;;;7.28;4.50;;;;;;;28.71;24.00;99509.72;12231762;19;20395;-80
2023/06/11 17:36:18;;;;;;;;;;;;;;;28.68;23.93;99507.63;12229334;19;20038;-78
2023/06/11 17:40:20;;;;;;;7.10;4.37;;;;;;;28.60;24.43;99496.16;12234572;19;20127;-80
2023/06/11 17:44:23;;;;;;;5.57;3.95;;;;;;;28.52;24.91;99502.91;12233803;19;20040;-81
2023/06/11 17:48:24;;;;;;;8.50;4.53;;;;;;;28.42;25.92;99500.72;12239969;19;20006;-79
2023/06/11 17:52:26;;;;;;;11.77;4.43;;;;;;;28.30;25.76;99503.69;12247833;19;20018;-83
2023/06/11 17:56:29;;;;;;;6.93;4.15;;;;;;;28.21;25.88;99497.47;12239165;19;20019;-82
2023/06/11 18:00:32;;;;;;;6.97;4.65;;;;;;;28.10;25.95;99503.72;12240358;19;20014;-81
2023/06/11 18:04:34;;;;;;;8.40;4.03;;;;;;;27.99;25.95;99501.88;12234889;19;20032;-80
2023/06/11 18:08:36;;;;;;;9.05;4.68;;;;;;;27.86;26.85;99509.72;12237359;19;20011;-80
2023/06/11 18:12:40;;;;;;;5.88;4.25;;;;;;;27.72;27.07;99508.22;12238827;19;20003;-81
2023/06/11 18:16:42;;;;;;;7.60;3.83;;;;;;;27.61;27.70;99507.16;12231385;19;20017;-78
2023/06/11 18:20:46;;;;;;;9.73;4.18;;;;;;;27.44;27.80;99516.91;12248655;19;20034;-79
2023/06/11 18:24:50;;;;;;;7.40;4.22;;;;;;;27.25;29.51;99516.88;12245735;19;20007;-79
2023/06/11 18:28:52;;;;;;;6.60;4.32;;;;;;;27.12;29.60;99518.16;12247789;19;20015;-81
2023/06/11 18:32:53;;;;;;;6.05;4.43;;;;;;;26.92;30.62;99515.28;12246815;19;20015;-80
2023/06/11 18:36:55;;;;;;;7.72;4.38;;;;;;;26.66;31.28;99515.84;12244836;19;20354;-81
2023/06/11 18:40:57;;;;;;;8.93;5.05;;;;;;;26.43;31.70;99523.28;12250407;19;20007;-81
2023/06/11 18:44:59;;;;;;;5.97;4.40;;;;;;;26.19;32.60;99519.44;12251530;19;20010;-80
2023/06/11 18:49:02;;;;;;;7.55;4.40;;;;;;;25.94;33.30;99524.41;12249290;19;20017;-80
2023/06/11 18:53:04;;;;;;;7.32;4.13;;;;;;;25.72;33.77;99533.38;12249663;19;20032;-80
2023/06/11 18:57:08;;;;;;;7.13;4.70;;;;;;;25.49;34.63;99533.09;12243942;19;20010;-82
2023/06/11 19:01:10;;;;;;;7.22;4.68;;;;;;;25.23;35.02;99537.16;12247206;19;20035;-79
2023/06/11 19:05:12;;;;;;;7.53;5.07;;;;;;;24.97;35.97;99543.94;12244464;19;20042;-80
2023/06/11 19:09:19;;;;;;;9.80;5.00;;;;;;;24.72;36.94;99543.13;12250179;19;20022;-80
2023/06/11 19:13:21;;;;;;;6.57;4.50;;;;;;;24.49;37.69;99547.56;12248991;19;20015;-80